Time;durP1;ratioP1;P1;durP2;ratioP2;P2;SDS_P1;SDS_P2;PMS_P1;PMS_P2;Temp;Humidity;BMP_temperature;BMP_pressure;BME280_temperature;BME280_humidity;BME280_pressure;Samples;Min_cycle;Max_cycle;Signal;HPM_P1;HPM_P2
2022/06/01 00:01:06;;;;;;;3.27;2.20;;;13.90;99.90;;;;;;5032306;28;20221;-61
2022/06/01 00:03:37;;;;;;;2.40;1.90;;;14.00;99.90;;;;;;5032012;28;20233;-62
2022/06/01 00:06:04;;;;;;;3.43;2.37;;;14.00;99.90;;;;;;5031932;28;20215;-62
2022/06/01 00:08:31;;;;;;;5.50;2.50;;;13.90;99.90;;;;;;5032088;28;20740;-61
2022/06/01 00:10:58;;;;;;;2.17;1.80;;;13.80;99.90;;;;;;5032206;28;20229;-60
2022/06/01 00:13:26;;;;;;;2.27;2.00;;;13.70;99.90;;;;;;5031970;28;20276;-61
2022/06/01 00:15:53;;;;;;;2.50;2.10;;;13.60;99.90;;;;;;5032064;28;20300;-61
2022/06/01 00:18:22;;;;;;;5.00;2.40;;;13.50;99.90;;;;;;5031811;28;20220;-61
2022/06/01 00:20:50;;;;;;;5.00;2.60;;;13.40;99.90;;;;;;5031900;28;20636;-61
2022/06/01 00:23:17;;;;;;;3.17;2.37;;;13.20;99.90;;;;;;5031706;28;20234;-61
2022/06/01 00:25:43;;;;;;;5.00;2.20;;;13.20;99.90;;;;;;5031958;28;20285;-61
2022/06/01 00:28:10;;;;;;;3.43;1.90;;;13.00;99.90;;;;;;5031762;28;20207;-61
2022/06/01 00:30:37;;;;;;;4.73;2.50;;;13.00;99.90;;;;;;5032017;28;20205;-61
2022/06/01 00:33:04;;;;;;;2.87;2.10;;;12.90;99.90;;;;;;5031691;28;20230;-62
2022/06/01 00:35:31;;;;;;;3.50;2.20;;;12.90;99.90;;;;;;5032051;28;20276;-61
2022/06/01 00:37:59;;;;;;;3.37;2.10;;;12.90;99.90;;;;;;5031689;28;20207;-60
2022/06/01 00:40:28;;;;;;;4.33;2.30;;;12.80;99.90;;;;;;5032120;28;20217;-60
2022/06/01 00:42:58;;;;;;;6.30;2.47;;;12.80;99.90;;;;;;5031741;28;20256;-61
2022/06/01 00:45:27;;;;;;;2.97;2.30;;;12.80;99.90;;;;;;5034576;28;20317;-61
2022/06/01 00:47:54;;;;;;;3.83;2.40;;;12.80;99.90;;;;;;5036231;28;20784;-61
2022/06/01 00:50:24;;;;;;;5.07;2.27;;;12.70;99.90;;;;;;5036732;28;20206;-60
2022/06/01 00:52:58;;;;;;;3.20;2.37;;;12.70;99.90;;;;;;5037338;28;20226;-61
2022/06/01 00:55:30;;;;;;;3.03;2.40;;;12.70;99.90;;;;;;5037035;28;20198;-62
2022/06/01 00:58:02;;;;;;;3.37;2.00;;;12.60;99.90;;;;;;5036456;28;20257;-62
2022/06/01 01:00:32;;;;;;;3.87;2.37;;;12.70;99.90;;;;;;5036407;28;20264;-62
2022/06/01 01:03:03;;;;;;;4.97;2.43;;;12.60;99.90;;;;;;5035824;28;20265;-62
2022/06/01 01:05:32;;;;;;;2.80;2.20;;;12.60;99.90;;;;;;5035799;28;20226;-62
2022/06/01 01:08:01;;;;;;;4.30;2.53;;;12.60;99.90;;;;;;5035929;28;20210;-62
2022/06/01 01:10:29;;;;;;;4.60;2.40;;;12.60;99.90;;;;;;5035540;28;20252;-62
2022/06/01 01:12:57;;;;;;;4.97;2.40;;;12.60;99.90;;;;;;5035723;28;20280;-62
2022/06/01 01:15:25;;;;;;;3.73;2.10;;;12.70;99.90;;;;;;5035524;28;20293;-61
2022/06/01 01:17:54;;;;;;;3.40;2.17;;;12.70;99.90;;;;;;5035228;28;20296;-62
2022/06/01 01:20:22;;;;;;;4.73;2.40;;;12.70;99.90;;;;;;5035438;28;20206;-62
2022/06/01 01:22:56;;;;;;;4.30;2.20;;;12.70;99.90;;;;;;5035043;28;20238;-62
2022/06/01 01:25:28;;;;;;;2.77;2.20;;;12.60;99.90;;;;;;5035176;28;20218;-62
2022/06/01 01:27:57;;;;;;;4.30;2.83;;;12.60;99.90;;;;;;5035034;28;20301;-62
2022/06/01 01:30:28;;;;;;;3.53;2.47;;;12.70;99.90;;;;;;5035184;28;20256;-62
2022/06/01 01:32:55;;;;;;;3.40;2.33;;;12.60;99.90;;;;;;5035063;28;20280;-62
2022/06/01 01:35:21;;;;;;;5.40;2.20;;;12.60;99.90;;;;;;5035014;28;20202;-63
2022/06/01 01:37:52;;;;;;;3.97;2.33;;;12.60;99.90;;;;;;5034523;28;20617;-61
2022/06/01 01:40:19;;;;;;;2.87;2.30;;;12.50;99.90;;;;;;5035008;28;20214;-61
2022/06/01 01:42:49;;;;;;;6.17;2.70;;;12.40;99.90;;;;;;5034617;28;20710;-61
2022/06/01 01:45:24;;;;;;;4.47;2.40;;;12.30;99.90;;;;;;5034753;28;20222;-60
2022/06/01 01:47:50;;;;;;;4.23;2.77;;;12.20;99.90;;;;;;5034465;28;20348;-60
2022/06/01 01:50:18;;;;;;;3.57;2.53;;;12.00;99.90;;;;;;5034878;28;20217;-63
2022/06/01 01:52:46;;;;;;;3.50;2.30;;;11.90;99.90;;;;;;5034834;28;20230;-60
2022/06/01 01:55:20;;;;;;;4.73;2.30;;;11.90;99.90;;;;;;5034388;28;20202;-60
2022/06/01 01:57:54;;;;;;;4.30;2.60;;;11.90;99.90;;;;;;5034492;28;20209;-61
2022/06/01 02:00:24;;;;;;;3.23;2.47;;;12.00;99.90;;;;;;5034385;28;20207;-61
2022/06/01 02:02:56;;;;;;;5.33;2.40;;;12.10;99.90;;;;;;5034652;28;20262;-61
2022/06/01 02:08:22;;;;;;;5.03;2.30;;;12.10;99.90;;;;;;5034303;28;20297;-60
2022/06/01 02:13:35;;;;;;;4.17;2.50;;;12.10;99.90;;;;;;5034304;28;20292;-62
2022/06/01 02:16:03;;;;;;;2.93;2.60;;;12.00;99.90;;;;;;5034233;28;20728;-62
2022/06/01 02:18:34;;;;;;;3.43;2.30;;;12.00;99.90;;;;;;5034053;28;20214;-62
2022/06/01 02:21:04;;;;;;;3.30;2.70;;;11.90;99.90;;;;;;5034027;28;20206;-61
2022/06/01 02:23:32;;;;;;;4.43;2.70;;;11.90;99.90;;;;;;5033927;28;20242;-62
2022/06/01 02:26:01;;;;;;;3.97;2.80;;;11.90;99.90;;;;;;5034103;28;20226;-62
2022/06/01 02:28:29;;;;;;;6.87;2.97;;;12.00;99.90;;;;;;5033971;28;20276;-62
2022/06/01 02:31:00;;;;;;;4.67;3.20;;;11.90;99.90;;;;;;5033992;28;20213;-62
2022/06/01 02:33:31;;;;;;;5.20;2.70;;;11.90;99.90;;;;;;5033855;28;20238;-62
2022/06/01 02:35:59;;;;;;;4.77;2.93;;;11.90;99.90;;;;;;5033688;28;20210;-61
2022/06/01 02:38:31;;;;;;;4.03;2.60;;;11.80;99.90;;;;;;5033762;28;20405;-61
2022/06/01 02:40:57;;;;;;;4.27;2.77;;;11.80;99.90;;;;;;5034019;28;20228;-61
2022/06/01 02:43:26;;;;;;;2.93;2.63;;;11.70;99.90;;;;;;5033779;28;20226;-62
2022/06/01 02:45:53;;;;;;;7.43;3.30;;;11.60;99.90;;;;;;5033769;28;20257;-62
2022/06/01 02:48:21;;;;;;;5.70;3.67;;;11.50;99.90;;;;;;5033361;28;20211;-61
2022/06/01 02:50:47;;;;;;;5.23;3.80;;;11.40;99.90;;;;;;5033834;28;20214;-61
2022/06/01 02:53:14;;;;;;;6.20;3.70;;;11.30;99.90;;;;;;5033963;28;20724;-62
2022/06/01 02:55:41;;;;;;;6.13;3.77;;;11.30;99.90;;;;;;5033606;28;20207;-61
2022/06/01 02:58:08;;;;;;;5.57;3.60;;;11.30;99.90;;;;;;5033261;28;20229;-61
2022/06/01 03:00:37;;;;;;;4.53;2.73;;;11.40;99.90;;;;;;5033442;28;20210;-61
2022/06/01 03:03:06;;;;;;;8.70;2.80;;;11.50;99.90;;;;;;5033572;28;20274;-60
2022/06/01 03:05:37;;;;;;;4.87;2.70;;;11.40;99.90;;;;;;5033392;28;20272;-61
2022/06/01 03:08:05;;;;;;;2.77;2.50;;;11.50;99.90;;;;;;5032485;28;20206;-61
2022/06/01 03:10:32;;;;;;;4.50;2.73;;;11.40;99.90;;;;;;5033375;28;20336;-62
2022/06/01 03:12:59;;;;;;;5.10;2.60;;;11.40;99.90;;;;;;5033026;28;20726;-62
2022/06/01 03:15:27;;;;;;;5.57;2.63;;;11.40;99.90;;;;;;5033013;28;20217;-62
2022/06/01 03:17:54;;;;;;;4.37;2.70;;;11.30;99.90;;;;;;5032994;28;20212;-61
2022/06/01 03:20:23;;;;;;;6.53;2.63;;;11.20;99.90;;;;;;5033349;28;20202;-61
2022/06/01 03:22:51;;;;;;;6.10;2.90;;;11.10;99.90;;;;;;5032848;28;20238;-61
2022/06/01 03:25:22;;;;;;;3.73;2.87;;;11.20;99.90;;;;;;5032796;28;20702;-61
2022/06/01 03:27:50;;;;;;;3.83;2.70;;;11.20;99.90;;;;;;5032637;28;20300;-61
2022/06/01 03:30:17;;;;;;;9.20;2.50;;;11.20;99.90;;;;;;5033068;28;20241;-61
2022/06/01 03:32:45;;;;;;;6.13;3.10;;;11.10;99.90;;;;;;5032828;28;20222;-61
2022/06/01 03:35:13;;;;;;;3.50;2.80;;;11.20;99.90;;;;;;5032918;28;20202;-62
2022/06/01 03:37:39;;;;;;;3.47;2.70;;;11.20;99.90;;;;;;5032411;28;20620;-61
2022/06/01 03:40:08;;;;;;;5.77;2.93;;;11.20;99.90;;;;;;5032667;28;20268;-62
2022/06/01 03:42:36;;;;;;;3.17;2.60;;;11.20;99.90;;;;;;5032823;28;20248;-62
2022/06/01 03:47:48;;;;;;;13.83;9.70;;;11.40;99.90;;;;;;5032331;28;20284;-62
2022/06/01 03:50:15;;;;;;;6.67;3.17;;;11.50;99.90;;;;;;5032587;28;20732;-61
2022/06/01 03:52:42;;;;;;;2.90;2.40;;;11.60;99.90;;;;;;5032770;28;20230;-62
2022/06/01 03:55:10;;;;;;;5.23;2.60;;;11.60;99.90;;;;;;5033416;28;20206;-61
2022/06/01 03:57:37;;;;;;;5.40;2.90;;;11.70;99.90;;;;;;5034047;28;20214;-62
2022/06/01 04:00:06;;;;;;;3.97;2.80;;;11.70;99.90;;;;;;5034219;28;20209;-61
2022/06/01 04:02:33;;;;;;;5.77;3.47;;;11.70;99.90;;;;;;5032725;28;20222;-61
2022/06/01 04:04:59;;;;;;;3.13;2.63;;;11.70;99.90;;;;;;5032439;28;20276;-60
2022/06/01 04:07:26;;;;;;;4.50;2.80;;;11.70;99.90;;;;;;5032290;28;20552;-62
2022/06/01 04:09:53;;;;;;;5.33;2.57;;;11.70;99.90;;;;;;5032754;28;20444;-62
2022/06/01 04:12:23;;;;;;;4.43;3.20;;;11.70;99.90;;;;;;5032383;28;20229;-62
2022/06/01 04:14:50;;;;;;;5.53;3.43;;;11.70;99.90;;;;;;5032250;28;20206;-62
2022/06/01 04:17:16;;;;;;;4.70;3.13;;;11.70;99.90;;;;;;5032183;28;20210;-61
2022/06/01 04:19:43;;;;;;;3.77;3.17;;;11.60;99.90;;;;;;5032003;28;20205;-61
2022/06/01 04:22:12;;;;;;;3.70;3.37;;;11.70;99.90;;;;;;5031829;28;20295;-59
2022/06/01 04:24:39;;;;;;;3.33;2.30;;;11.80;99.90;;;;;;5031959;28;20805;-63
2022/06/01 04:27:06;;;;;;;5.60;2.97;;;11.80;99.90;;;;;;5031951;28;20233;-62
2022/06/01 04:29:34;;;;;;;5.60;3.30;;;11.90;99.90;;;;;;5031762;28;20670;-62
2022/06/01 04:32:03;;;;;;;3.73;2.80;;;12.00;99.90;;;;;;5031985;28;20228;-62
2022/06/01 04:34:30;;;;;;;3.53;2.70;;;12.10;99.90;;;;;;5031830;28;20222;-62
2022/06/01 04:36:57;;;;;;;3.23;2.43;;;12.20;99.90;;;;;;5031787;28;20206;-62
2022/06/01 04:39:24;;;;;;;3.70;2.87;;;12.40;99.90;;;;;;5032027;28;20210;-62
2022/06/01 04:41:52;;;;;;;5.87;3.20;;;12.60;99.90;;;;;;5031881;28;20230;-62
2022/06/01 04:44:19;;;;;;;4.60;2.90;;;12.80;99.90;;;;;;5031772;28;20206;-61
2022/06/01 04:46:47;;;;;;;3.97;3.27;;;13.10;99.90;;;;;;5031519;28;20681;-62
2022/06/01 04:49:14;;;;;;;4.80;3.90;;;13.30;99.90;;;;;;5031587;28;20209;-62
2022/06/01 04:51:41;;;;;;;3.70;3.30;;;13.50;99.90;;;;;;5031915;28;20226;-61
2022/06/01 04:54:08;;;;;;;4.47;3.80;;;13.70;99.90;;;;;;5031734;28;20210;-62
2022/06/01 04:56:35;;;;;;;4.93;3.60;;;13.80;99.90;;;;;;5031547;28;20229;-62
2022/06/01 04:59:02;;;;;;;3.77;2.87;;;14.00;99.90;;;;;;5031570;28;20214;-62
2022/06/01 05:01:29;;;;;;;5.80;2.83;;;14.40;99.90;;;;;;5031305;28;20253;-61
2022/06/01 05:03:57;;;;;;;5.57;3.00;;;15.00;99.90;;;;;;5031732;28;20225;-61
2022/06/01 05:06:24;;;;;;;5.43;3.10;;;15.40;99.90;;;;;;5031737;28;20321;-62
2022/06/01 05:08:51;;;;;;;8.20;4.23;;;15.70;99.90;;;;;;5031452;28;20312;-62
2022/06/01 05:11:18;;;;;;;3.37;2.50;;;16.50;99.90;;;;;;5031491;28;20252;-62
2022/06/01 05:13:44;;;;;;;7.28;3.05;;;18.10;99.90;;;;;;5031602;28;20576;-63
2022/06/01 05:16:11;;;;;;;7.40;3.17;;;20.20;99.90;;;;;;5031380;28;20716;-61
2022/06/01 05:18:38;;;;;;;4.53;2.40;;;22.10;99.90;;;;;;5030992;28;20762;-61
2022/06/01 05:21:07;;;;;;;3.13;2.20;;;24.00;99.90;;;;;;5031629;28;20264;-61
2022/06/01 05:23:33;;;;;;;3.63;1.70;;;25.70;95.70;;;;;;5054509;23;20308;-58
2022/06/01 05:26:00;;;;;;;3.00;1.80;;;26.80;91.50;;;;;;5031477;28;20229;-57
2022/06/01 05:28:29;;;;;;;3.17;1.80;;;27.40;86.40;;;;;;5031458;28;20206;-57
2022/06/01 05:30:59;;;;;;;3.38;1.80;;;27.20;84.70;;;;;;5033366;28;20213;-56
2022/06/01 05:33:27;;;;;;;3.00;1.70;;;27.00;84.20;;;;;;5035434;28;20226;-58
2022/06/01 05:35:53;;;;;;;5.97;1.95;;;27.00;81.80;;;;;;5035229;28;20210;-58
2022/06/01 05:38:21;;;;;;;3.63;1.52;;;27.80;79.10;;;;;;5034925;28;20202;-58
2022/06/01 05:40:48;;;;;;;3.75;1.50;;;28.90;74.40;;;;;;5035037;28;20593;-58
2022/06/01 05:43:17;;;;;;;2.40;1.60;;;30.00;70.80;;;;;;5035147;28;20237;-57
2022/06/01 05:45:44;;;;;;;3.72;1.45;;;31.10;64.50;;;;;;5035218;28;20329;-58
2022/06/01 05:48:14;;;;;;;2.42;1.55;;;31.40;61.90;;;;;;5035132;28;20232;-58
2022/06/01 05:50:42;;;;;;;3.05;1.20;;;31.80;61.50;;;;;;5035161;28;20226;-58
2022/06/01 05:53:09;;;;;;;1.85;1.25;;;32.50;58.90;;;;;;5035269;28;20222;-58
2022/06/01 05:55:38;;;;;;;3.88;1.63;;;33.40;55.80;;;;;;5035085;28;20495;-59
2022/06/01 05:58:15;;;;;;;2.63;1.38;;;34.10;54.30;;;;;;5035010;28;20242;-58
2022/06/01 06:00:44;;;;;;;4.13;1.52;;;34.90;52.30;;;;;;5034919;28;20202;-59
2022/06/01 06:03:11;;;;;;;3.22;1.48;;;35.20;51.10;;;;;;5035143;28;20222;-58
2022/06/01 06:08:22;;;;;;;3.63;1.35;;;35.80;49.70;;;;;;5034551;28;20213;-59
2022/06/01 06:10:50;;;;;;;5.32;1.70;;;36.50;48.00;;;;;;5034717;28;20665;-59
2022/06/01 06:13:17;;;;;;;3.35;1.25;;;36.90;46.20;;;;;;5034345;28;20230;-59
2022/06/01 06:15:44;;;;;;;3.38;1.50;;;36.90;46.20;;;;;;5034579;28;20293;-61
2022/06/01 06:18:12;;;;;;;3.95;1.40;;;37.30;45.50;;;;;;5034216;28;20203;-59
2022/06/01 06:20:41;;;;;;;4.13;1.45;;;37.60;44.80;;;;;;5034156;28;20230;-58
2022/06/01 06:23:08;;;;;;;3.05;1.52;;;37.60;43.90;;;;;;5033884;28;20245;-58
2022/06/01 06:25:34;;;;;;;6.78;1.40;;;37.50;44.10;;;;;;5034374;28;20226;-59
2022/06/01 06:28:03;;;;;;;3.78;1.70;;;37.40;43.80;;;;;;5034051;28;20206;-58
2022/06/01 06:30:29;;;;;;;2.55;1.40;;;37.50;43.80;;;;;;5034187;28;20206;-59
2022/06/01 06:32:56;;;;;;;3.50;1.50;;;37.80;43.40;;;;;;5033926;28;20237;-59
2022/06/01 06:35:23;;;;;;;2.95;1.60;;;38.10;42.60;;;;;;5034051;28;20202;-59
2022/06/01 06:37:49;;;;;;;1.67;1.33;;;38.50;42.40;;;;;;5034027;28;20207;-59
2022/06/01 06:40:16;;;;;;;4.78;1.10;;;38.60;41.90;;;;;;5034072;28;20620;-59
2022/06/01 06:42:43;;;;;;;4.88;1.20;;;38.80;41.10;;;;;;5032926;28;20230;-59
2022/06/01 06:45:12;;;;;;;4.78;1.70;;;39.20;41.20;;;;;;5033668;28;20577;-58
2022/06/01 06:47:39;;;;;;;3.00;1.40;;;39.80;40.00;;;;;;5033622;28;20210;-59
2022/06/01 06:50:08;;;;;;;2.40;1.27;;;40.20;39.40;;;;;;5034072;28;20206;-58
2022/06/01 06:52:35;;;;;;;3.53;1.70;;;40.40;39.00;;;;;;5034506;28;20234;-60
2022/06/01 06:55:02;;;;;;;4.05;1.50;;;40.30;39.20;;;;;;5034290;28;20256;-59
2022/06/01 06:57:28;;;;;;;4.65;1.40;;;40.10;39.40;;;;;;5033798;28;20214;-58
2022/06/01 06:59:55;;;;;;;3.80;1.15;;;40.00;39.30;;;;;;5034087;28;20213;-59
2022/06/01 07:02:23;;;;;;;1.63;1.30;;;40.10;38.60;;;;;;5033353;28;20234;-59
2022/06/01 07:04:50;;;;;;;2.08;1.33;;;40.10;38.90;;;;;;5033787;28;20591;-59
2022/06/01 07:07:17;;;;;;;2.55;1.77;;;40.20;38.40;;;;;;5033599;28;20234;-59
2022/06/01 07:09:44;;;;;;;1.75;1.38;;;40.10;38.50;;;;;;5033688;28;20256;-59
2022/06/01 07:12:11;;;;;;;3.20;1.38;;;39.80;38.90;;;;;;5033908;28;20234;-59
2022/06/01 07:14:37;;;;;;;4.15;1.60;;;39.80;38.50;;;;;;5033087;28;20618;-59
2022/06/01 07:17:05;;;;;;;3.45;1.38;;;39.60;38.60;;;;;;5032877;28;20206;-59
2022/06/01 07:19:33;;;;;;;4.15;1.70;;;39.70;38.80;;;;;;5033345;28;20214;-59
2022/06/01 07:22:00;;;;;;;2.55;1.50;;;39.80;39.00;;;;;;5033125;28;20494;-59
2022/06/01 07:24:26;;;;;;;2.10;1.13;;;40.30;37.60;;;;;;5033160;28;20207;-59
2022/06/01 07:26:53;;;;;;;3.50;1.48;;;40.40;37.40;;;;;;5032644;28;20693;-59
2022/06/01 07:29:21;;;;;;;2.55;1.35;;;40.40;37.60;;;;;;5032909;28;20682;-59
2022/06/01 07:31:50;;;;;;;3.47;1.50;;;40.30;37.80;;;;;;5033173;28;20206;-59
2022/06/01 07:34:17;;;;;;;5.00;1.50;;;40.70;37.50;;;;;;5033132;28;20241;-59
2022/06/01 07:36:46;;;;;;;2.65;1.33;;;41.20;37.30;;;;;;5032701;28;20206;-59
2022/06/01 07:44:45;;;;;;;3.08;1.58;;;42.60;35.30;;;;;;5032711;28;20577;-59
2022/06/01 07:47:13;;;;;;;2.92;1.40;;;42.40;35.50;;;;;;5032454;28;20229;-59
2022/06/01 07:49:40;;;;;;;2.33;1.30;;;42.40;35.70;;;;;;5032671;28;20239;-59
2022/06/01 07:52:11;;;;;;;3.58;1.40;;;42.60;35.10;;;;;;5032412;28;20631;-59
2022/06/01 07:54:38;;;;;;;3.88;1.52;;;42.30;35.60;;;;;;5032010;28;20209;-59
2022/06/01 07:57:05;;;;;;;3.63;1.80;;;42.50;34.80;;;;;;5032409;28;20202;-61
2022/06/01 07:59:31;;;;;;;4.03;1.52;;;42.90;34.60;;;;;;5033882;28;20584;-59
2022/06/01 08:01:58;;;;;;;4.55;1.40;;;42.50;35.00;;;;;;5033961;28;20577;-59
2022/06/01 08:04:25;;;;;;;3.97;1.60;;;42.40;35.10;;;;;;5034620;28;20854;-59
2022/06/01 08:06:52;;;;;;;3.20;1.50;;;42.80;34.80;;;;;;5033596;28;20229;-59
2022/06/01 08:09:20;;;;;;;3.72;1.30;;;43.20;34.30;;;;;;5033392;28;20716;-59
2022/06/01 08:14:33;;;;;;;4.45;1.40;;;43.10;34.30;;;;;;5032577;28;20573;-59
2022/06/01 08:17:00;;;;;;;5.47;1.63;;;43.10;34.10;;;;;;5032224;28;20202;-59
2022/06/01 08:19:26;;;;;;;3.13;1.48;;;43.20;33.30;;;;;;5031921;28;20231;-59
2022/06/01 08:21:53;;;;;;;3.63;1.30;;;43.20;33.10;;;;;;5032209;28;20209;-59
2022/06/01 08:24:21;;;;;;;2.30;1.20;;;43.10;33.30;;;;;;5032177;28;20260;-59
2022/06/01 08:26:48;;;;;;;1.75;1.45;;;43.30;33.50;;;;;;5031983;28;20232;-59
2022/06/01 08:29:14;;;;;;;11.98;10.73;;;43.70;32.70;;;;;;5032316;28;20209;-59
2022/06/01 08:31:41;;;;;;;3.65;1.58;;;43.80;32.60;;;;;;5032109;28;20300;-59
2022/06/01 08:34:10;;;;;;;3.88;1.45;;;43.90;32.20;;;;;;5031898;28;20283;-59
2022/06/01 08:36:37;;;;;;;2.78;1.58;;;43.10;32.60;;;;;;5032051;28;20697;-59
2022/06/01 08:39:04;;;;;;;1.83;1.23;;;41.20;34.40;;;;;;5031987;28;20213;-58
2022/06/01 08:41:36;;;;;;;2.80;1.40;;;38.80;37.00;;;;;;5032074;28;20209;-58
2022/06/01 08:44:08;;;;;;;2.83;1.50;;;36.30;38.40;;;;;;5031905;28;20625;-59
2022/06/01 08:46:36;;;;;;;3.65;1.45;;;34.90;41.00;;;;;;5031745;28;20637;-58
2022/06/01 08:49:09;;;;;;;1.95;1.33;;;33.80;42.10;;;;;;5032281;28;20252;-58
2022/06/01 08:51:35;;;;;;;3.70;1.63;;;32.80;43.70;;;;;;5031922;28;20732;-58
2022/06/01 08:54:03;;;;;;;2.78;1.60;;;31.30;46.10;;;;;;5031867;28;20238;-58
2022/06/01 08:56:35;;;;;;;4.38;2.10;;;29.80;48.40;;;;;;5031790;28;20229;-58
2022/06/01 08:59:09;;;;;;;3.95;1.77;;;28.40;51.10;;;;;;5031370;28;20268;-58
2022/06/01 09:01:44;;;;;;;4.70;1.58;;;27.10;52.40;;;;;;5031845;28;20202;-58
2022/06/01 09:04:25;;;;;;;3.17;1.38;;;26.50;53.60;;;;;;5031935;28;20226;-58
2022/06/01 09:06:58;;;;;;;5.22;1.73;;;26.40;51.60;;;;;;5034941;28;20225;-58
2022/06/01 09:09:31;;;;;;;4.00;1.83;;;26.20;50.90;;;;;;5035468;28;20677;-58
2022/06/01 09:12:00;;;;;;;2.33;1.65;;;26.50;50.80;;;;;;5035843;28;20264;-58
2022/06/01 09:14:31;;;;;;;2.75;1.60;;;26.80;50.80;;;;;;5036051;28;20206;-58
2022/06/01 09:16:59;;;;;;;2.83;1.50;;;27.20;50.20;;;;;;5035796;28;20202;-59
2022/06/01 09:19:29;;;;;;;3.28;1.50;;;27.50;49.40;;;;;;5035813;28;20688;-59
2022/06/01 09:24:59;;;;;;;2.95;1.40;;;27.50;50.00;;;;;;4974616;28;20207;-58
2022/06/01 09:27:38;;;;;;;2.15;1.48;;;27.20;50.40;;;;;;4974048;28;20743;-58
2022/06/01 09:30:19;;;;;;;3.70;1.40;;;26.70;50.90;;;;;;5005896;28;20210;-58
2022/06/01 09:33:01;;;;;;;4.50;1.90;;;26.70;50.90;;;;;;5035352;28;20230;-57
2022/06/01 09:35:29;;;;;;;2.53;1.63;;;26.70;51.70;;;;;;5035288;28;20202;-57
2022/06/01 09:37:56;;;;;;;1.65;1.55;;;26.80;52.60;;;;;;5034984;28;20576;-58
2022/06/01 09:40:27;;;;;;;3.15;1.60;;;26.80;52.60;;;;;;5035252;28;20206;-58
2022/06/01 09:42:59;;;;;;;3.65;1.92;;;26.50;51.50;;;;;;5034840;28;20710;-58
2022/06/01 09:45:29;;;;;;;7.75;3.40;;;26.10;52.60;;;;;;5035282;28;20263;-58
2022/06/01 09:48:11;;;;;;;5.15;1.80;;;25.90;52.50;;;;;;5034818;28;20296;-58
2022/06/01 09:50:40;;;;;;;2.65;1.40;;;25.80;53.20;;;;;;5035399;28;20210;-58
2022/06/01 09:53:16;;;;;;;2.53;1.45;;;25.70;52.50;;;;;;5034903;28;20233;-58
2022/06/01 09:55:51;;;;;;;3.80;1.40;;;25.40;51.50;;;;;;5034783;28;20574;-58
2022/06/01 10:06:52;;;;;;;2.30;1.40;;;24.70;53.20;;;;;;5035114;28;20257;-57
2022/06/01 10:09:23;;;;;;;6.38;1.45;;;24.90;53.20;;;;;;5034555;28;20264;-57
2022/06/01 10:11:51;;;;;;;3.85;1.88;;;25.00;53.60;;;;;;5034699;28;20682;-57
2022/06/01 10:14:23;;;;;;;4.78;1.60;;;25.10;53.50;;;;;;5034749;28;20632;-57
2022/06/01 10:17:11;;;;;;;4.50;2.60;;;25.30;54.10;;;;;;5034558;28;20436;-57
2022/06/01 10:19:42;;;;;;;9.82;3.00;;;25.40;54.90;;;;;;5034474;28;20210;-58
2022/06/01 10:22:15;;;;;;;3.60;2.05;;;25.60;53.70;;;;;;5035273;28;20234;-70
2022/06/01 10:24:46;;;;;;;5.57;2.10;;;25.60;54.60;;;;;;5036213;28;20217;-67
2022/06/01 10:27:13;;;;;;;3.53;1.90;;;25.60;53.20;;;;;;5037650;28;20222;-67
2022/06/01 10:29:45;;;;;;;2.30;1.80;;;25.50;52.20;;;;;;5037418;28;20210;-67
2022/06/01 10:32:19;;;;;;;4.65;1.58;;;25.40;53.40;;;;;;5038038;28;20226;-66
2022/06/01 10:34:49;;;;;;;3.20;1.20;;;25.20;52.50;;;;;;5036614;28;20213;-66
2022/06/01 10:37:23;;;;;;;2.10;1.42;;;25.20;52.30;;;;;;5036050;28;20194;-67
2022/06/01 10:39:53;;;;;;;1.90;1.23;;;25.30;52.10;;;;;;5036040;28;20210;-66
2022/06/01 10:43:16;;;;;;;2.53;1.30;;;25.60;51.70;;;;;;5035806;28;20223;-64
2022/06/01 10:45:15;;;;;;;5.97;1.98;;;26.00;51.00;;;;;;5036050;28;20209;-67
2022/06/01 10:47:54;;;;;;;1.73;1.33;;;26.40;51.00;;;;;;5035629;28;20217;-65
2022/06/01 10:50:24;;;;;;;3.97;1.40;;;26.80;50.40;;;;;;5036424;28;20208;-64
2022/06/01 10:52:56;;;;;;;4.70;1.58;;;27.10;50.40;;;;;;5037106;28;20234;-64
2022/06/01 10:55:26;;;;;;;2.92;1.67;;;27.30;50.60;;;;;;5036521;28;20202;-70
2022/06/01 10:57:56;;;;;;;3.45;1.73;;;27.40;49.50;;;;;;5036753;28;20206;-65
2022/06/01 11:00:29;;;;;;;3.78;1.55;;;27.20;49.00;;;;;;5037258;28;20214;-65
2022/06/01 11:03:29;;;;;;;2.45;1.58;;;26.90;49.80;;;;;;5036681;28;20604;-64
2022/06/01 11:06:04;;;;;;;4.57;1.30;;;26.50;48.60;;;;;;5035901;28;20209;-65
2022/06/01 11:08:40;;;;;;;2.75;1.23;;;26.30;48.70;;;;;;5036139;28;20569;-65
2022/06/01 11:11:18;;;;;;;3.03;1.20;;;26.10;49.50;;;;;;5036725;28;20209;-65
2022/06/01 11:14:07;;;;;;;2.65;1.33;;;25.90;49.40;;;;;;5036063;28;20264;-66
2022/06/01 11:16:47;;;;;;;4.95;1.45;;;25.60;48.80;;;;;;5036808;28;20204;-65
2022/06/01 11:19:29;;;;;;;2.63;1.35;;;25.40;50.00;;;;;;5035470;28;20230;-66
2022/06/01 11:22:02;;;;;;;4.10;1.27;;;25.60;49.60;;;;;;5035175;28;20717;-65
2022/06/01 11:24:54;;;;;;;1.42;0.95;;;25.80;50.00;;;;;;5061249;23;20233;-59
2022/06/01 11:27:41;;;;;;;3.20;1.15;;;26.00;48.90;;;;;;5038218;28;20222;-61
2022/06/01 11:30:15;;;;;;;3.15;1.15;;;25.90;49.10;;;;;;5038385;28;20600;-61
2022/06/01 11:32:48;;;;;;;2.53;1.38;;;25.80;48.90;;;;;;5038104;28;20234;-60
2022/06/01 11:35:25;;;;;;;3.55;1.02;;;25.70;48.10;;;;;;5037958;28;20662;-61
2022/06/01 11:37:58;;;;;;;1.85;1.02;;;25.60;49.00;;;;;;5038107;28;20204;-61
2022/06/01 11:40:37;;;;;;;1.88;1.00;;;25.80;48.60;;;;;;5038414;28;20206;-61
2022/06/01 11:43:09;;;;;;;1.98;1.00;;;26.10;46.70;;;;;;5036899;28;20233;-62
2022/06/01 11:45:40;;;;;;;1.27;0.85;;;26.40;46.40;;;;;;5028681;28;20206;-57
2022/06/01 11:48:11;;;;;;;1.17;0.85;;;26.50;46.00;;;;;;5031150;28;20765;-58
2022/06/01 11:50:56;;;;;;;1.77;0.88;;;26.70;46.50;;;;;;5031309;28;20214;-58
2022/06/01 11:53:30;;;;;;;3.40;0.82;;;26.80;44.80;;;;;;5031141;28;20256;-58
2022/06/01 11:56:14;;;;;;;2.67;1.30;;;26.60;44.50;;;;;;5031211;28;20301;-56
2022/06/01 11:58:45;;;;;;;1.80;1.10;;;26.60;45.40;;;;;;5031409;28;20209;-59
2022/06/01 12:01:14;;;;;;;2.95;0.80;;;26.80;46.30;;;;;;5031515;28;20591;-59
2022/06/01 12:03:57;;;;;;;1.08;0.90;;;26.90;45.50;;;;;;5031113;28;20230;-58
2022/06/01 12:06:49;;;;;;;2.95;0.90;;;27.00;44.90;;;;;;5031094;28;20293;-59
2022/06/01 12:09:25;;;;;;;2.13;0.88;;;26.80;44.00;;;;;;5031304;28;20206;-58
2022/06/01 12:11:52;;;;;;;2.72;0.90;;;26.70;44.30;;;;;;5031049;28;20210;-59
2022/06/01 12:14:23;;;;;;;2.42;1.20;;;26.50;44.00;;;;;;5031023;28;20277;-59
2022/06/01 12:17:23;;;;;;;1.90;1.58;;;26.40;44.40;;;;;;5030648;28;20213;-59
2022/06/01 12:19:52;;;;;;;3.78;1.30;;;26.40;45.50;;;;;;5031158;28;20210;-58
2022/06/01 12:31:09;;;;;;;3.05;1.08;;;26.50;45.00;;;;;;5031087;28;20613;-62
2022/06/01 12:34:04;;;;;;;2.08;1.13;;;26.80;44.50;;;;;;5031241;28;20642;-58
2022/06/01 12:36:43;;;;;;;2.47;1.15;;;27.10;43.70;;;;;;5031451;28;20217;-56
2022/06/01 12:39:14;;;;;;;3.95;1.38;;;27.20;44.40;;;;;;5030789;28;20213;-57
2022/06/01 12:41:44;;;;;;;1.88;1.35;;;27.10;44.70;;;;;;5030981;28;20300;-59
2022/06/01 12:44:11;;;;;;;3.20;1.30;;;27.20;44.30;;;;;;5030930;28;20264;-58
2022/06/01 12:46:41;;;;;;;2.80;1.33;;;27.40;44.40;;;;;;5030393;28;20584;-58
2022/06/01 12:49:40;;;;;;;1.70;1.10;;;27.60;44.00;;;;;;5030275;28;20229;-59
2022/06/01 12:52:11;;;;;;;1.70;1.02;;;27.80;44.10;;;;;;4968978;28;20208;-58
2022/06/01 12:54:41;;;;;;;2.17;1.20;;;28.00;43.50;;;;;;5018291;28;20222;-59
2022/06/01 12:57:11;;;;;;;2.97;1.20;;;28.00;43.80;;;;;;5030440;28;20202;-58
2022/06/01 12:59:41;;;;;;;2.25;1.05;;;28.00;44.80;;;;;;5030679;28;20206;-58
2022/06/01 13:02:10;;;;;;;2.72;1.38;;;28.10;44.50;;;;;;5030570;28;20674;-58
2022/06/01 13:04:38;;;;;;;1.98;1.13;;;28.30;44.10;;;;;;5030039;28;20257;-58
2022/06/01 13:07:08;;;;;;;5.32;1.38;;;28.50;44.00;;;;;;5030023;28;20621;-58
2022/06/01 13:09:39;;;;;;;1.58;1.08;;;28.40;44.40;;;;;;5030210;28;20694;-60
2022/06/01 13:12:15;;;;;;;2.60;1.10;;;28.30;44.50;;;;;;5030426;28;20210;-59
2022/06/01 13:14:42;;;;;;;2.78;1.30;;;28.30;45.00;;;;;;5030073;28;20570;-60
2022/06/01 13:17:15;;;;;;;3.33;1.38;;;28.30;45.50;;;;;;5029741;28;20210;-60
2022/06/01 13:19:43;;;;;;;2.08;1.08;;;28.30;45.40;;;;;;5030141;28;20210;-59
2022/06/01 13:22:19;;;;;;;2.00;1.27;;;28.50;45.00;;;;;;5030189;28;20211;-58
2022/06/01 13:24:50;;;;;;;1.75;1.27;;;28.60;45.60;;;;;;5030370;28;20206;-59
2022/06/01 13:27:17;;;;;;;2.60;1.23;;;28.60;44.60;;;;;;5029820;28;20213;-58
2022/06/01 13:29:48;;;;;;;4.82;3.90;;;28.30;44.80;;;;;;5030600;28;20206;-58
2022/06/01 13:32:18;;;;;;;3.33;1.30;;;27.80;45.50;;;;;;5030481;28;20198;-58
2022/06/01 13:34:47;;;;;;;4.10;1.30;;;27.50;46.50;;;;;;5029996;28;20551;-59
2022/06/01 13:37:19;;;;;;;2.20;1.30;;;27.40;46.80;;;;;;5029773;28;20757;-58
2022/06/01 13:39:57;;;;;;;3.25;1.02;;;27.20;47.30;;;;;;5029789;28;20213;-59